Time,TemperatureF,DewpointF,PressureIn,WindDirection,WindDirectionDegrees,WindSpeedMPH,WindSpeedGustMPH,Humidity,HourlyPrecipIn,Conditions,Clouds,dailyrainin,SoftwareType,DateUTC
2013-02-10 00:03:00,8.0,-4.0,30.19,NNW,337,5.0,6.0,61,0.00,,,0.00,TxWx,2013-02-10 05:03:00,
2013-02-10 00:08:00,9.0,-3.0,30.18,NNW,337,6.0,6.0,61,0.00,,,0.00,TxWx,2013-02-10 05:08:00,
2013-02-10 00:13:00,9.0,-3.0,30.18,NNW,337,5.0,7.0,61,0.00,,,0.00,TxWx,2013-02-10 05:13:00,
2013-02-10 00:18:00,9.0,-3.0,30.18,NNW,337,6.0,6.0,61,0.00,,,0.00,TxWx,2013-02-10 05:18:00,
2013-02-10 00:23:00,9.0,-3.0,30.18,NNW,337,5.0,5.0,62,0.00,,,0.00,TxWx,2013-02-10 05:23:00,
2013-02-10 00:28:00,9.0,-3.0,30.19,NW,315,3.0,4.0,62,0.00,,,0.00,TxWx,2013-02-10 05:28:00,
2013-02-10 00:33:00,9.0,-3.0,30.19,NNW,337,6.0,7.0,62,0.00,,,0.00,TxWx,2013-02-10 05:33:00,
2013-02-10 00:39:00,9.0,-3.0,30.18,NNW,337,5.0,7.0,62,0.00,,,0.00,TxWx,2013-02-10 05:39:00,
2013-02-10 00:44:00,9.0,-3.0,30.19,NW,315,3.0,4.0,62,0.00,,,0.00,TxWx,2013-02-10 05:44:00,
2013-02-10 00:49:00,9.0,-3.0,30.19,NNW,337,6.0,8.0,62,0.00,,,0.00,TxWx,2013-02-10 05:49:00,
2013-02-10 00:54:00,8.0,-3.0,30.19,NNW,337,8.0,8.0,62,0.00,,,0.00,TxWx,2013-02-10 05:54:00,
2013-02-10 00:59:00,9.0,-2.0,30.19,NNW,337,7.0,8.0,62,0.00,,,0.00,TxWx,2013-02-10 05:59:00,
2013-02-10 01:04:00,9.0,-2.0,30.19,NNW,337,5.0,7.0,63,0.00,,,0.00,TxWx,2013-02-10 06:04:00,
2013-02-10 01:09:00,9.0,-2.0,30.19,NW,315,7.0,8.0,63,0.00,,,0.00,TxWx,2013-02-10 06:09:00,
2013-02-10 01:15:00,9.0,-2.0,30.19,NW,315,6.0,9.0,62,0.00,,,0.00,TxWx,2013-02-10 06:15:00,
2013-02-10 01:20:00,9.0,-2.0,30.19,NNW,337,7.0,8.0,63,0.00,,,0.00,TxWx,2013-02-10 06:20:00,
2013-02-10 01:25:00,9.0,-2.0,30.19,North,0,8.0,9.0,63,0.00,,,0.00,TxWx,2013-02-10 06:25:00,
2013-02-10 01:30:00,9.0,-2.0,30.19,North,0,5.0,5.0,63,0.00,,,0.00,TxWx,2013-02-10 06:30:00,
2013-02-10 01:35:00,9.0,-2.0,30.19,NNW,337,3.0,5.0,63,0.00,,,0.00,TxWx,2013-02-10 06:35:00,
2013-02-10 01:40:00,8.0,-3.0,30.19,NNW,337,6.0,7.0,63,0.00,,,0.00,TxWx,2013-02-10 06:40:00,
2013-02-10 01:45:00,8.0,-3.0,30.20,North,0,6.0,7.0,64,0.00,,,0.00,TxWx,2013-02-10 06:45:00,
2013-02-10 01:50:00,8.0,-3.0,30.20,NNW,337,6.0,8.0,64,0.00,,,0.00,TxWx,2013-02-10 06:50:00,
2013-02-10 01:58:00,8.0,-3.0,30.20,NNW,337,6.0,7.0,64,0.00,,,0.00,TxWx,2013-02-10 06:58:00,
2013-02-10 02:03:00,9.0,-2.0,30.20,NW,315,4.0,5.0,64,0.00,,,0.00,TxWx,2013-02-10 07:03:00,
2013-02-10 02:08:00,8.0,-3.0,30.20,NNW,337,5.0,5.0,64,0.00,,,0.00,TxWx,2013-02-10 07:08:00,
2013-02-10 02:13:00,9.0,-2.0,30.20,NNW,337,6.0,7.0,64,0.00,,,0.00,TxWx,2013-02-10 07:13:00,
2013-02-10 02:20:00,8.0,-3.0,30.20,North,0,5.0,5.0,64,0.00,,,0.00,TxWx,2013-02-10 07:20:00,
2013-02-10 02:25:00,8.0,-3.0,30.20,NNE,22,5.0,6.0,64,0.00,,,0.00,TxWx,2013-02-10 07:25:00,
2013-02-10 02:30:00,9.0,-2.0,30.20,NW,315,4.0,6.0,64,0.00,,,0.00,TxWx,2013-02-10 07:30:00,
2013-02-10 02:35:00,8.0,-3.0,30.20,NNW,337,3.0,4.0,64,0.00,,,0.00,TxWx,2013-02-10 07:35:00,
2013-02-10 02:40:00,8.0,-2.0,30.20,NW,315,3.0,4.0,65,0.00,,,0.00,TxWx,2013-02-10 07:40:00,
2013-02-10 02:45:00,8.0,-3.0,30.21,WNW,292,4.0,4.0,64,0.00,,,0.00,TxWx,2013-02-10 07:45:00,
2013-02-10 02:50:00,7.0,-3.0,30.20,WSW,247,2.0,3.0,64,0.00,,,0.00,TxWx,2013-02-10 07:50:00,
2013-02-10 02:55:00,7.0,-4.0,30.20,WNW,292,3.0,3.0,64,0.00,,,0.00,TxWx,2013-02-10 07:55:00,
2013-02-10 03:00:00,6.0,-4.0,30.20,WSW,247,3.0,4.0,65,0.00,,,0.00,TxWx,2013-02-10 08:00:00,
2013-02-10 03:05:00,6.0,-5.0,30.20,WNW,292,3.0,3.0,64,0.00,,,0.00,TxWx,2013-02-10 08:05:00,
2013-02-10 03:10:00,7.0,-3.0,30.20,NW,315,4.0,5.0,65,0.00,,,0.00,TxWx,2013-02-10 08:10:00,
2013-02-10 03:16:00,6.0,-4.0,30.21,West,270,3.0,5.0,66,0.00,,,0.00,TxWx,2013-02-10 08:16:00,
2013-02-10 03:21:00,6.0,-4.0,30.21,West,270,4.0,5.0,67,0.00,,,0.00,TxWx,2013-02-10 08:21:00,
2013-02-10 03:26:00,6.0,-4.0,30.21,West,270,4.0,4.0,67,0.00,,,0.00,TxWx,2013-02-10 08:26:00,
2013-02-10 03:31:00,7.0,-3.0,30.21,West,270,3.0,4.0,67,0.00,,,0.00,TxWx,2013-02-10 08:31:00,
2013-02-10 03:36:00,6.0,-4.0,30.21,WNW,292,2.0,3.0,67,0.00,,,0.00,TxWx,2013-02-10 08:36:00,
2013-02-10 03:41:00,6.0,-2.0,30.21,NW,315,3.0,3.0,68,0.00,,,0.00,TxWx,2013-02-10 08:41:00,
2013-02-10 03:46:00,7.0,-2.0,30.21,WNW,292,5.0,5.0,69,0.00,,,0.00,TxWx,2013-02-10 08:46:00,
2013-02-10 03:51:00,6.0,-3.0,30.21,North,0,3.0,3.0,69,0.00,,,0.00,TxWx,2013-02-10 08:51:00,
2013-02-10 03:56:00,6.0,-3.0,30.21,NNW,337,3.0,3.0,70,0.00,,,0.00,TxWx,2013-02-10 08:56:00,
2013-02-10 04:01:00,6.0,-3.0,30.21,NNW,337,3.0,3.0,70,0.00,,,0.00,TxWx,2013-02-10 09:01:00,
2013-02-10 04:06:00,6.0,-3.0,30.21,WNW,292,3.0,4.0,70,0.00,,,0.00,TxWx,2013-02-10 09:06:00,
2013-02-10 04:11:00,6.0,-3.0,30.21,WNW,292,4.0,5.0,70,0.00,,,0.00,TxWx,2013-02-10 09:11:00,
2013-02-10 04:16:00,7.0,-2.0,30.21,NNW,337,3.0,4.0,70,0.00,,,0.00,TxWx,2013-02-10 09:16:00,
2013-02-10 04:21:00,7.0,-2.0,30.21,North,0,2.0,2.0,70,0.00,,,0.00,TxWx,2013-02-10 09:21:00,
2013-02-10 04:26:00,7.0,-2.0,30.22,NNE,22,3.0,3.0,70,0.00,,,0.00,TxWx,2013-02-10 09:26:00,
2013-02-10 04:32:00,7.0,-2.0,30.22,North,0,3.0,3.0,70,0.00,,,0.00,TxWx,2013-02-10 09:32:00,
2013-02-10 04:37:00,7.0,-2.0,30.21,NNW,337,4.0,5.0,69,0.00,,,0.00,TxWx,2013-02-10 09:37:00,
2013-02-10 04:42:00,7.0,-2.0,30.21,NE,45,3.0,3.0,69,0.00,,,0.00,TxWx,2013-02-10 09:42:00,
2013-02-10 04:47:00,7.0,-2.0,30.21,NNW,337,4.0,4.0,68,0.00,,,0.00,TxWx,2013-02-10 09:47:00,
2013-02-10 04:52:00,8.0,-1.0,30.21,NNE,22,4.0,5.0,68,0.00,,,0.00,TxWx,2013-02-10 09:52:00,
2013-02-10 04:57:00,7.0,-3.0,30.21,NNE,22,2.0,3.0,67,0.00,,,0.00,TxWx,2013-02-10 09:57:00,
2013-02-10 05:02:00,8.0,-2.0,30.21,WSW,247,1.0,2.0,67,0.00,,,0.00,TxWx,2013-02-10 10:02:00,
2013-02-10 05:07:00,6.0,-3.0,30.21,NW,315,2.0,2.0,68,0.00,,,0.00,TxWx,2013-02-10 10:07:00,
2013-02-10 05:12:00,6.0,-3.0,30.22,SSW,202,0.0,0.0,70,0.00,,,0.00,TxWx,2013-02-10 10:12:00,
2013-02-10 05:17:00,5.0,-3.0,30.22,SW,225,2.0,2.0,71,0.00,,,0.00,TxWx,2013-02-10 10:17:00,
2013-02-10 05:22:00,5.0,-3.0,30.22,WSW,247,2.0,2.0,72,0.00,,,0.00,TxWx,2013-02-10 10:22:00,
2013-02-10 05:27:00,6.0,-2.0,30.22,WNW,292,3.0,3.0,72,0.00,,,0.00,TxWx,2013-02-10 10:27:00,
2013-02-10 05:32:00,5.0,-3.0,30.22,NW,315,2.0,3.0,73,0.00,,,0.00,TxWx,2013-02-10 10:32:00,
2013-02-10 05:37:00,6.0,-2.0,30.23,NW,315,3.0,3.0,74,0.00,,,0.00,TxWx,2013-02-10 10:37:00,
2013-02-10 05:42:00,5.0,-3.0,30.22,WNW,292,3.0,3.0,74,0.00,,,0.00,TxWx,2013-02-10 10:42:00,
2013-02-10 05:47:00,5.0,-3.0,30.23,NW,315,3.0,3.0,73,0.00,,,0.00,TxWx,2013-02-10 10:47:00,
2013-02-10 05:53:00,5.0,-3.0,30.23,NNW,337,3.0,4.0,74,0.00,,,0.00,TxWx,2013-02-10 10:53:00,
2013-02-10 05:58:00,5.0,-3.0,30.23,NW,315,3.0,3.0,74,0.00,,,0.00,TxWx,2013-02-10 10:58:00,
2013-02-10 06:03:00,5.0,-3.0,30.24,NW,315,3.0,3.0,74,0.00,,,0.00,TxWx,2013-02-10 11:03:00,
2013-02-10 06:08:00,5.0,-3.0,30.24,NW,315,3.0,3.0,74,0.00,,,0.00,TxWx,2013-02-10 11:08:00,
2013-02-10 06:13:00,5.0,-2.0,30.24,NNW,337,3.0,3.0,75,0.00,,,0.00,TxWx,2013-02-10 11:13:00,
2013-02-10 06:18:00,5.0,-2.0,30.24,NNW,337,3.0,3.0,75,0.00,,,0.00,TxWx,2013-02-10 11:18:00,
2013-02-10 06:23:00,5.0,-2.0,30.24,NE,45,2.0,3.0,75,0.00,,,0.00,TxWx,2013-02-10 11:23:00,
2013-02-10 06:28:00,5.0,-2.0,30.24,North,0,3.0,4.0,75,0.00,,,0.00,TxWx,2013-02-10 11:28:00,
2013-02-10 06:33:00,5.0,-2.0,30.25,NNW,337,3.0,3.0,75,0.00,,,0.00,TxWx,2013-02-10 11:33:00,
2013-02-10 06:38:00,5.0,-2.0,30.25,NNE,22,1.0,1.0,74,0.00,,,0.00,TxWx,2013-02-10 11:38:00,
2013-02-10 06:43:00,6.0,-1.0,30.26,NW,315,2.0,2.0,74,0.00,,,0.00,TxWx,2013-02-10 11:43:00,
2013-02-10 06:48:00,6.0,-2.0,30.26,NW,315,1.0,2.0,73,0.00,,,0.00,TxWx,2013-02-10 11:48:00,
2013-02-10 06:53:00,6.0,-2.0,30.26,NNW,337,3.0,3.0,73,0.00,,,0.00,TxWx,2013-02-10 11:53:00,
2013-02-10 06:58:00,6.0,-2.0,30.26,North,0,1.0,2.0,73,0.00,,,0.00,TxWx,2013-02-10 11:58:00,
2013-02-10 07:03:00,6.0,-2.0,30.26,WNW,292,3.0,3.0,73,0.00,,,0.00,TxWx,2013-02-10 12:03:00,
2013-02-10 07:09:00,6.0,-2.0,30.27,WNW,292,3.0,3.0,72,0.00,,,0.00,TxWx,2013-02-10 12:09:00,
2013-02-10 07:14:00,6.0,-2.0,30.27,West,270,1.0,1.0,71,0.00,,,0.00,TxWx,2013-02-10 12:14:00,
2013-02-10 07:19:00,6.0,-3.0,30.27,WNW,292,3.0,3.0,70,0.00,,,0.00,TxWx,2013-02-10 12:19:00,
2013-02-10 07:24:00,6.0,-3.0,30.27,WNW,292,1.0,2.0,70,0.00,,,0.00,TxWx,2013-02-10 12:24:00,
2013-02-10 07:29:00,7.0,-2.0,30.28,SW,225,1.0,1.0,71,0.00,,,0.00,TxWx,2013-02-10 12:29:00,
2013-02-10 07:34:00,6.0,-2.0,30.28,SSW,202,0.0,0.0,72,0.00,,,0.00,TxWx,2013-02-10 12:34:00,
2013-02-10 07:39:00,6.0,-2.0,30.29,SSW,202,1.0,1.0,72,0.00,,,0.00,TxWx,2013-02-10 12:39:00,
2013-02-10 07:44:00,6.0,-2.0,30.29,SW,225,1.0,2.0,72,0.00,,,0.00,TxWx,2013-02-10 12:44:00,
2013-02-10 07:49:00,7.0,-1.0,30.29,SW,225,1.0,1.0,71,0.00,,,0.00,TxWx,2013-02-10 12:49:00,
2013-02-10 07:54:00,7.0,-2.0,30.30,SSW,202,1.0,1.0,70,0.00,,,0.00,TxWx,2013-02-10 12:54:00,
2013-02-10 07:59:00,7.0,-2.0,30.30,SSE,157,0.0,0.0,69,0.00,,,0.00,TxWx,2013-02-10 12:59:00,
2013-02-10 08:04:00,8.0,-1.0,30.30,South,180,0.0,0.0,69,0.00,,,0.00,TxWx,2013-02-10 13:04:00,
2013-02-10 08:09:00,9.0,-1.0,30.30,South,180,0.0,0.0,67,0.00,,,0.00,TxWx,2013-02-10 13:09:00,
2013-02-10 08:15:00,10.0,-1.0,30.30,NNW,337,1.0,1.0,64,0.00,,,0.00,TxWx,2013-02-10 13:15:00,
2013-02-10 08:20:00,10.0,-1.0,30.30,SSW,202,0.0,0.0,62,0.00,,,0.00,TxWx,2013-02-10 13:20:00,
2013-02-10 08:25:00,10.0,-2.0,30.30,SSW,202,0.0,0.0,60,0.00,,,0.00,TxWx,2013-02-10 13:25:00,
2013-02-10 08:30:00,10.0,-2.0,30.30,SW,225,1.0,1.0,59,0.00,,,0.00,TxWx,2013-02-10 13:30:00,
2013-02-10 08:35:00,10.0,-2.0,30.30,SW,225,3.0,3.0,60,0.00,,,0.00,TxWx,2013-02-10 13:35:00,
2013-02-10 08:40:00,10.0,-2.0,30.30,WSW,247,1.0,1.0,60,0.00,,,0.00,TxWx,2013-02-10 13:40:00,
2013-02-10 08:45:00,9.0,-3.0,30.30,SSW,202,1.0,1.0,60,0.00,,,0.00,TxWx,2013-02-10 13:45:00,
2013-02-10 08:50:00,9.0,-3.0,30.30,West,270,2.0,2.0,62,0.00,,,0.00,TxWx,2013-02-10 13:50:00,
2013-02-10 08:55:00,10.0,0.0,30.30,West,270,2.0,2.0,65,0.00,,,0.00,TxWx,2013-02-10 13:55:00,
2013-02-10 09:00:00,10.0,0.0,30.30,NNW,337,3.0,3.0,67,0.00,,,0.00,TxWx,2013-02-10 14:00:00,
2013-02-10 09:05:00,9.0,-1.0,30.30,NNE,22,1.0,2.0,67,0.00,,,0.00,TxWx,2013-02-10 14:05:00,
2013-02-10 09:10:00,10.0,0.0,30.30,North,0,1.0,2.0,66,0.00,,,0.00,TxWx,2013-02-10 14:10:00,
2013-02-10 09:15:00,10.0,-1.0,30.30,ENE,67,1.0,1.0,64,0.00,,,0.00,TxWx,2013-02-10 14:15:00,
2013-02-10 09:21:00,11.0,0.0,30.30,SSE,157,0.0,0.0,63,0.00,,,0.00,TxWx,2013-02-10 14:21:00,
2013-02-10 09:26:00,11.0,-1.0,30.30,WSW,247,2.0,2.0,61,0.00,,,0.00,TxWx,2013-02-10 14:26:00,
2013-02-10 09:31:00,12.0,0.0,30.30,NW,315,1.0,1.0,60,0.00,,,0.00,TxWx,2013-02-10 14:31:00,
2013-02-10 09:36:00,11.0,-1.0,30.31,WSW,247,3.0,3.0,61,0.00,,,0.00,TxWx,2013-02-10 14:36:00,
2013-02-10 09:41:00,11.0,-1.0,30.31,WSW,247,2.0,3.0,62,0.00,,,0.00,TxWx,2013-02-10 14:41:00,
2013-02-10 09:46:00,12.0,1.0,30.31,WSW,247,2.0,3.0,63,0.00,,,0.00,TxWx,2013-02-10 14:46:00,
2013-02-10 09:51:00,11.0,0.0,30.32,West,270,3.0,3.0,64,0.00,,,0.00,TxWx,2013-02-10 14:51:00,
2013-02-10 09:56:00,11.0,0.0,30.32,WSW,247,3.0,3.0,65,0.00,,,0.00,TxWx,2013-02-10 14:56:00,
2013-02-10 10:01:00,11.0,1.0,30.32,WSW,247,3.0,3.0,66,0.00,,,0.00,TxWx,2013-02-10 15:01:00,
2013-02-10 10:06:00,10.0,0.0,30.32,WSW,247,1.0,1.0,66,0.00,,,0.00,TxWx,2013-02-10 15:06:00,
2013-02-10 10:11:00,10.0,0.0,30.32,SW,225,3.0,4.0,67,0.00,,,0.00,TxWx,2013-02-10 15:11:00,
2013-02-10 10:16:00,10.0,1.0,30.32,SW,225,3.0,3.0,68,0.00,,,0.00,TxWx,2013-02-10 15:16:00,
2013-02-10 10:21:00,11.0,2.0,30.32,WSW,247,2.0,3.0,68,0.00,,,0.00,TxWx,2013-02-10 15:21:00,
2013-02-10 10:27:00,12.0,1.0,30.32,South,180,1.0,1.0,66,0.00,,,0.00,TxWx,2013-02-10 15:27:00,
2013-02-10 10:32:00,12.0,1.0,30.32,SW,225,2.0,3.0,64,0.00,,,0.00,TxWx,2013-02-10 15:32:00,
2013-02-10 10:37:00,12.0,0.0,30.33,WNW,292,3.0,4.0,61,0.00,,,0.00,TxWx,2013-02-10 15:37:00,
2013-02-10 10:42:00,12.0,0.0,30.33,SW,225,2.0,3.0,60,0.00,,,0.00,TxWx,2013-02-10 15:42:00,
2013-02-10 10:47:00,13.0,0.0,30.33,SSE,157,1.0,1.0,59,0.00,,,0.00,TxWx,2013-02-10 15:47:00,
2013-02-10 10:52:00,13.0,0.0,30.33,West,270,3.0,3.0,58,0.00,,,0.00,TxWx,2013-02-10 15:52:00,
2013-02-10 10:57:00,12.0,-1.0,30.33,SW,225,5.0,6.0,58,0.00,,,0.00,TxWx,2013-02-10 15:57:00,
2013-02-10 11:02:00,13.0,0.0,30.34,West,270,4.0,5.0,59,0.00,,,0.00,TxWx,2013-02-10 16:02:00,
2013-02-10 11:07:00,13.0,1.0,30.34,SSW,202,3.0,3.0,60,0.00,,,0.00,TxWx,2013-02-10 16:07:00,
2013-02-10 11:12:00,13.0,0.0,30.33,WSW,247,3.0,4.0,59,0.00,,,0.00,TxWx,2013-02-10 16:12:00,
2013-02-10 11:17:00,13.0,0.0,30.33,WSW,247,4.0,4.0,58,0.00,,,0.00,TxWx,2013-02-10 16:17:00,
2013-02-10 11:22:00,13.0,0.0,30.32,WSW,247,1.0,2.0,59,0.00,,,0.00,TxWx,2013-02-10 16:22:00,
2013-02-10 11:27:00,14.0,0.0,30.32,NW,315,3.0,5.0,55,0.00,,,0.00,TxWx,2013-02-10 16:27:00,
2013-02-10 11:32:00,14.0,0.0,30.31,NW,315,3.0,3.0,56,0.00,,,0.00,TxWx,2013-02-10 16:32:00,
2013-02-10 11:38:00,14.0,0.0,30.31,North,0,4.0,4.0,57,0.00,,,0.00,TxWx,2013-02-10 16:38:00,
2013-02-10 11:43:00,14.0,0.0,30.31,NW,315,3.0,3.0,57,0.00,,,0.00,TxWx,2013-02-10 16:43:00,
2013-02-10 11:48:00,15.0,1.0,30.30,NW,315,1.0,2.0,56,0.00,,,0.00,TxWx,2013-02-10 16:48:00,
2013-02-10 11:53:00,16.0,1.0,30.30,NNW,337,4.0,5.0,55,0.00,,,0.00,TxWx,2013-02-10 16:53:00,
2013-02-10 11:58:00,16.0,1.0,30.30,NW,315,5.0,5.0,54,0.00,,,0.00,TxWx,2013-02-10 16:58:00,
2013-02-10 12:03:00,16.0,1.0,30.30,NW,315,3.0,3.0,54,0.00,,,0.00,TxWx,2013-02-10 17:03:00,
2013-02-10 12:08:00,16.0,0.0,30.30,NW,315,4.0,5.0,52,0.00,,,0.00,TxWx,2013-02-10 17:08:00,
2013-02-10 12:13:00,16.0,0.0,30.29,NW,315,3.0,4.0,52,0.00,,,0.00,TxWx,2013-02-10 17:13:00,
2013-02-10 12:18:00,17.0,1.0,30.28,NW,315,4.0,4.0,52,0.00,,,0.00,TxWx,2013-02-10 17:18:00,
2013-02-10 12:23:00,17.0,0.0,30.28,NNW,337,6.0,6.0,50,0.00,,,0.00,TxWx,2013-02-10 17:23:00,
2013-02-10 12:28:00,17.0,0.0,30.28,WNW,292,3.0,3.0,49,0.00,,,0.00,TxWx,2013-02-10 17:28:00,
2013-02-10 12:33:00,18.0,1.0,30.28,WNW,292,4.0,5.0,49,0.00,,,0.00,TxWx,2013-02-10 17:33:00,
2013-02-10 12:38:00,18.0,1.0,30.27,North,0,3.0,4.0,48,0.00,,,0.00,TxWx,2013-02-10 17:38:00,
2013-02-10 12:43:00,20.0,2.0,30.27,NNW,337,3.0,3.0,48,0.00,,,0.00,TxWx,2013-02-10 17:43:00,
2013-02-10 12:48:00,20.0,2.0,30.27,West,270,3.0,4.0,48,0.00,,,0.00,TxWx,2013-02-10 17:48:00,
2013-02-10 12:54:00,19.0,1.0,30.27,NNW,337,4.0,5.0,48,0.00,,,0.00,TxWx,2013-02-10 17:54:00,
2013-02-10 12:59:00,19.0,1.0,30.26,WNW,292,4.0,5.0,47,0.00,,,0.00,TxWx,2013-02-10 17:59:00,
2013-02-10 13:04:00,19.0,1.0,30.26,WSW,247,5.0,5.0,47,0.00,,,0.00,TxWx,2013-02-10 18:04:00,
2013-02-10 13:09:00,19.0,1.0,30.26,West,270,5.0,5.0,47,0.00,,,0.00,TxWx,2013-02-10 18:09:00,
2013-02-10 13:14:00,20.0,2.0,30.26,WNW,292,3.0,3.0,48,0.00,,,0.00,TxWx,2013-02-10 18:14:00,
2013-02-10 13:19:00,20.0,2.0,30.26,WSW,247,5.0,5.0,48,0.00,,,0.00,TxWx,2013-02-10 18:19:00,
2013-02-10 13:24:00,20.0,2.0,30.25,West,270,3.0,4.0,48,0.00,,,0.00,TxWx,2013-02-10 18:24:00,
2013-02-10 13:29:00,20.0,2.0,30.25,SW,225,3.0,3.0,48,0.00,,,0.00,TxWx,2013-02-10 18:29:00,
2013-02-10 13:34:00,20.0,2.0,30.24,NNE,22,1.0,3.0,46,0.00,,,0.00,TxWx,2013-02-10 18:34:00,
2013-02-10 13:39:00,20.0,2.0,30.24,NW,315,4.0,4.0,47,0.00,,,0.00,TxWx,2013-02-10 18:39:00,
2013-02-10 13:44:00,20.0,1.0,30.24,NW,315,5.0,7.0,46,0.00,,,0.00,TxWx,2013-02-10 18:44:00,
2013-02-10 13:49:00,20.0,1.0,30.24,NW,315,3.0,4.0,45,0.00,,,0.00,TxWx,2013-02-10 18:49:00,
2013-02-10 13:54:00,21.0,2.0,30.24,West,270,3.0,5.0,46,0.00,,,0.00,TxWx,2013-02-10 18:54:00,
2013-02-10 13:59:00,21.0,2.0,30.24,NW,315,3.0,3.0,45,0.00,,,0.00,TxWx,2013-02-10 18:59:00,
2013-02-10 14:00:00,27.0,-2.0,30.11,SSE,157,11.0,13.0,29,0.00,,,0.00,TxWx,2013-02-10 19:00:00,
2013-02-10 14:01:00,27.0,-2.0,30.11,ESE,112,10.0,10.0,29,0.00,,,0.00,TxWx,2013-02-10 19:01:00,
2013-02-10 14:02:00,27.0,-2.0,30.11,ESE,112,13.0,13.0,29,0.00,,,0.00,TxWx,2013-02-10 19:02:00,
2013-02-10 14:03:00,27.0,-2.0,30.11,SSE,157,13.0,14.0,29,0.00,,,0.00,TxWx,2013-02-10 19:03:00,
2013-02-10 14:05:00,22.0,3.0,30.24,West,270,5.0,5.0,45,0.00,,,0.00,TxWx,2013-02-10 19:05:00,
2013-02-10 14:10:00,21.0,2.0,30.24,WSW,247,5.0,6.0,45,0.00,,,0.00,TxWx,2013-02-10 19:10:00,
2013-02-10 14:15:00,22.0,3.0,30.24,WNW,292,7.0,7.0,45,0.00,,,0.00,TxWx,2013-02-10 19:15:00,
2013-02-10 14:20:00,21.0,1.0,30.25,West,270,4.0,5.0,44,0.00,,,0.00,TxWx,2013-02-10 19:20:00,
2013-02-10 14:25:00,21.0,1.0,30.25,West,270,5.0,6.0,43,0.00,,,0.00,TxWx,2013-02-10 19:25:00,
2013-02-10 14:30:00,21.0,1.0,30.25,SW,225,3.0,4.0,44,0.00,,,0.00,TxWx,2013-02-10 19:30:00,
2013-02-10 14:35:00,21.0,1.0,30.25,WSW,247,4.0,5.0,44,0.00,,,0.00,TxWx,2013-02-10 19:35:00,
2013-02-10 14:40:00,21.0,1.0,30.25,West,270,5.0,5.0,44,0.00,,,0.00,TxWx,2013-02-10 19:40:00,
2013-02-10 14:45:00,21.0,1.0,30.25,NW,315,3.0,5.0,43,0.00,,,0.00,TxWx,2013-02-10 19:45:00,
2013-02-10 14:50:00,22.0,2.0,30.25,NW,315,5.0,6.0,43,0.00,,,0.00,TxWx,2013-02-10 19:50:00,
2013-02-10 14:55:00,22.0,2.0,30.26,NW,315,4.0,4.0,43,0.00,,,0.00,TxWx,2013-02-10 19:55:00,
2013-02-10 15:00:00,21.0,1.0,30.26,WSW,247,1.0,2.0,43,0.00,,,0.00,TxWx,2013-02-10 20:00:00,
2013-02-10 15:05:00,22.0,1.0,30.26,SW,225,1.0,1.0,42,0.00,,,0.00,TxWx,2013-02-10 20:05:00,
2013-02-10 15:10:00,22.0,1.0,30.26,NW,315,3.0,3.0,42,0.00,,,0.00,TxWx,2013-02-10 20:10:00,
2013-02-10 15:15:00,23.0,2.0,30.25,NNW,337,2.0,3.0,42,0.00,,,0.00,TxWx,2013-02-10 20:15:00,
2013-02-10 15:20:00,22.0,1.0,30.25,NNE,22,3.0,3.0,41,0.00,,,0.00,TxWx,2013-02-10 20:20:00,
2013-02-10 15:26:00,22.0,1.0,30.24,NNW,337,3.0,4.0,42,0.00,,,0.00,TxWx,2013-02-10 20:26:00,
2013-02-10 15:29:00,28.0,1.0,30.05,SE,135,16.0,16.0,32,0.00,,,0.00,TxWx,2013-02-10 20:29:00,
2013-02-10 15:30:00,28.0,1.0,30.06,SSE,157,10.0,18.0,32,0.00,,,0.00,TxWx,2013-02-10 20:30:00,
2013-02-10 15:31:00,22.0,1.0,30.24,NNE,22,4.0,5.0,42,0.00,,,0.00,TxWx,2013-02-10 20:31:00,
2013-02-10 15:32:00,28.0,1.0,30.06,SE,135,17.0,18.0,32,0.00,,,0.00,TxWx,2013-02-10 20:32:00,
2013-02-10 15:33:00,28.0,1.0,30.06,SSE,157,19.0,19.0,32,0.00,,,0.00,TxWx,2013-02-10 20:33:00,
2013-02-10 15:36:00,22.0,1.0,30.24,NNE,22,4.0,4.0,42,0.00,,,0.00,TxWx,2013-02-10 20:36:00,
2013-02-10 15:41:00,22.0,1.0,30.24,NNE,22,3.0,4.0,42,0.00,,,0.00,TxWx,2013-02-10 20:41:00,
2013-02-10 15:45:00,28.0,1.0,30.05,ESE,112,13.0,17.0,32,0.00,,,0.00,TxWx,2013-02-10 20:45:00,
2013-02-10 15:46:00,22.0,1.0,30.23,North,0,4.0,5.0,42,0.00,,,0.00,TxWx,2013-02-10 20:46:00,
2013-02-10 15:47:00,28.0,1.0,30.04,SE,135,11.0,14.0,33,0.00,,,0.00,TxWx,2013-02-10 20:47:00,
2013-02-10 15:48:00,28.0,1.0,30.05,SE,135,14.0,16.0,33,0.00,,,0.00,TxWx,2013-02-10 20:48:00,
2013-02-10 15:49:00,28.0,1.0,30.04,SE,135,15.0,18.0,33,0.00,,,0.00,TxWx,2013-02-10 20:49:00,
2013-02-10 15:50:00,28.0,1.0,30.04,SE,135,14.0,23.0,33,0.00,,,0.00,TxWx,2013-02-10 20:50:00,
2013-02-10 15:51:00,22.0,1.0,30.23,NW,315,2.0,3.0,42,0.00,,,0.00,TxWx,2013-02-10 20:51:00,
2013-02-10 15:52:00,28.0,2.0,30.04,SE,135,18.0,18.0,33,0.00,,,0.00,TxWx,2013-02-10 20:52:00,
2013-02-10 15:55:00,28.0,2.0,30.04,East,90,16.0,20.0,33,0.00,,,0.00,TxWx,2013-02-10 20:55:00,
2013-02-10 15:56:00,22.0,2.0,30.23,NNW,337,3.0,4.0,43,0.00,,,0.00,TxWx,2013-02-10 20:56:00,
2013-02-10 15:57:00,28.0,2.0,30.04,SSE,157,11.0,16.0,33,0.00,,,0.00,TxWx,2013-02-10 20:57:00,
2013-02-10 15:58:00,28.0,2.0,30.04,ESE,112,14.0,14.0,33,0.00,,,0.00,TxWx,2013-02-10 20:58:00,
2013-02-10 15:59:00,27.0,1.0,30.04,SE,135,17.0,18.0,33,0.00,,,0.00,TxWx,2013-02-10 20:59:00,
2013-02-10 16:01:00,23.0,2.0,30.22,North,0,3.0,3.0,42,0.00,,,0.00,TxWx,2013-02-10 21:01:00,
2013-02-10 16:06:00,23.0,2.0,30.22,NW,315,3.0,3.0,41,0.00,,,0.00,TxWx,2013-02-10 21:06:00,
2013-02-10 16:11:00,23.0,2.0,30.22,NNE,22,3.0,3.0,41,0.00,,,0.00,TxWx,2013-02-10 21:11:00,
2013-02-10 16:16:00,23.0,2.0,30.22,NNW,337,2.0,3.0,41,0.00,,,0.00,TxWx,2013-02-10 21:16:00,
2013-02-10 16:21:00,24.0,2.0,30.22,NE,45,1.0,3.0,41,0.00,,,0.00,TxWx,2013-02-10 21:21:00,
2013-02-10 16:26:00,23.0,1.0,30.22,NE,45,3.0,3.0,40,0.00,,,0.00,TxWx,2013-02-10 21:26:00,
2013-02-10 16:31:00,23.0,1.0,30.22,NNE,22,1.0,2.0,40,0.00,,,0.00,TxWx,2013-02-10 21:31:00,
2013-02-10 16:36:00,24.0,2.0,30.22,North,0,3.0,4.0,40,0.00,,,0.00,TxWx,2013-02-10 21:36:00,
2013-02-10 16:41:00,23.0,2.0,30.21,NE,45,2.0,3.0,41,0.00,,,0.00,TxWx,2013-02-10 21:41:00,
2013-02-10 16:47:00,22.0,1.0,30.20,NE,45,5.0,6.0,41,0.00,,,0.00,TxWx,2013-02-10 21:47:00,
2013-02-10 16:52:00,23.0,2.0,30.21,East,90,1.0,1.0,42,0.00,,,0.00,TxWx,2013-02-10 21:52:00,
2013-02-10 16:57:00,23.0,2.0,30.21,SSE,157,0.0,0.0,41,0.00,,,0.00,TxWx,2013-02-10 21:57:00,
2013-02-10 17:02:00,23.0,2.0,30.21,SSE,157,0.0,0.0,41,0.00,,,0.00,TxWx,2013-02-10 22:02:00,
2013-02-10 17:07:00,23.0,2.0,30.21,South,180,3.0,3.0,41,0.00,,,0.00,TxWx,2013-02-10 22:07:00,
2013-02-10 17:12:00,22.0,1.0,30.22,SSW,202,4.0,5.0,42,0.00,,,0.00,TxWx,2013-02-10 22:12:00,
2013-02-10 17:17:00,21.0,1.0,30.22,SSW,202,4.0,4.0,42,0.00,,,0.00,TxWx,2013-02-10 22:17:00,
2013-02-10 17:22:00,21.0,1.0,30.22,SSW,202,5.0,5.0,43,0.00,,,0.00,TxWx,2013-02-10 22:22:00,
2013-02-10 17:27:00,21.0,1.0,30.23,SSW,202,5.0,5.0,44,0.00,,,0.00,TxWx,2013-02-10 22:27:00,
2013-02-10 17:32:00,21.0,1.0,30.23,SSW,202,5.0,5.0,44,0.00,,,0.00,TxWx,2013-02-10 22:32:00,
2013-02-10 17:37:00,21.0,1.0,30.23,SSW,202,3.0,4.0,44,0.00,,,0.00,TxWx,2013-02-10 22:37:00,
2013-02-10 17:42:00,20.0,0.0,30.23,SSW,202,2.0,2.0,44,0.00,,,0.00,TxWx,2013-02-10 22:42:00,
2013-02-10 17:47:00,20.0,0.0,30.22,SSW,202,0.0,1.0,44,0.00,,,0.00,TxWx,2013-02-10 22:47:00,
2013-02-10 17:52:00,21.0,1.0,30.22,SSE,157,0.0,0.0,43,0.00,,,0.00,TxWx,2013-02-10 22:52:00,
2013-02-10 17:58:00,21.0,1.0,30.22,South,180,0.0,0.0,43,0.00,,,0.00,TxWx,2013-02-10 22:58:00,
2013-02-10 18:03:00,21.0,1.0,30.22,SSE,157,0.0,0.0,44,0.00,,,0.00,TxWx,2013-02-10 23:03:00,
2013-02-10 18:08:00,20.0,0.0,30.21,ESE,112,0.0,0.0,44,0.00,,,0.00,TxWx,2013-02-10 23:08:00,
2013-02-10 18:13:00,21.0,1.0,30.21,East,90,0.0,0.0,43,0.00,,,0.00,TxWx,2013-02-10 23:13:00,
2013-02-10 18:18:00,21.0,1.0,30.21,ESE,112,1.0,2.0,44,0.00,,,0.00,TxWx,2013-02-10 23:18:00,
2013-02-10 18:23:00,21.0,1.0,30.21,ESE,112,3.0,4.0,44,0.00,,,0.00,TxWx,2013-02-10 23:23:00,
2013-02-10 18:28:00,22.0,2.0,30.21,ESE,112,3.0,3.0,44,0.00,,,0.00,TxWx,2013-02-10 23:28:00,
2013-02-10 18:33:00,21.0,1.0,30.21,SE,135,3.0,4.0,44,0.00,,,0.00,TxWx,2013-02-10 23:33:00,
2013-02-10 18:38:00,21.0,1.0,30.21,SE,135,5.0,5.0,44,0.00,,,0.00,TxWx,2013-02-10 23:38:00,
2013-02-10 18:43:00,22.0,2.0,30.21,ESE,112,3.0,3.0,44,0.00,,,0.00,TxWx,2013-02-10 23:43:00,
2013-02-10 18:48:00,22.0,2.0,30.21,ESE,112,3.0,4.0,44,0.00,,,0.00,TxWx,2013-02-10 23:48:00,
2013-02-10 18:53:00,22.0,2.0,30.21,SE,135,4.0,4.0,44,0.00,,,0.00,TxWx,2013-02-10 23:53:00,
2013-02-10 18:58:00,22.0,2.0,30.21,ESE,112,3.0,5.0,44,0.00,,,0.00,TxWx,2013-02-10 23:58:00,
2013-02-10 19:04:00,22.0,2.0,30.21,SE,135,4.0,5.0,44,0.00,,,0.00,TxWx,2013-02-11 00:04:00,
2013-02-10 19:09:00,22.0,2.0,30.20,ESE,112,3.0,3.0,44,0.00,,,0.00,TxWx,2013-02-11 00:09:00,
2013-02-10 19:14:00,21.0,2.0,30.20,ESE,112,4.0,5.0,45,0.00,,,0.00,TxWx,2013-02-11 00:14:00,
2013-02-10 19:19:00,21.0,2.0,30.20,SE,135,5.0,5.0,45,0.00,,,0.00,TxWx,2013-02-11 00:19:00,
2013-02-10 19:24:00,22.0,3.0,30.20,SE,135,5.0,5.0,45,0.00,,,0.00,TxWx,2013-02-11 00:24:00,
2013-02-10 19:29:00,21.0,2.0,30.20,ESE,112,5.0,5.0,45,0.00,,,0.00,TxWx,2013-02-11 00:29:00,
2013-02-10 19:34:00,21.0,2.0,30.20,SE,135,5.0,5.0,45,0.00,,,0.00,TxWx,2013-02-11 00:34:00,
2013-02-10 19:39:00,21.0,2.0,30.20,SE,135,5.0,5.0,46,0.00,,,0.00,TxWx,2013-02-11 00:39:00,
2013-02-10 19:44:00,21.0,2.0,30.20,SE,135,5.0,6.0,46,0.00,,,0.00,TxWx,2013-02-11 00:44:00,
2013-02-10 19:49:00,21.0,2.0,30.20,ESE,112,6.0,6.0,46,0.00,,,0.00,TxWx,2013-02-11 00:49:00,
2013-02-10 19:54:00,21.0,2.0,30.19,East,90,4.0,5.0,46,0.00,,,0.00,TxWx,2013-02-11 00:54:00,
2013-02-10 19:59:00,21.0,2.0,30.19,ESE,112,5.0,6.0,46,0.00,,,0.00,TxWx,2013-02-11 00:59:00,
2013-02-10 20:04:00,21.0,2.0,30.20,ESE,112,5.0,6.0,46,0.00,,,0.00,TxWx,2013-02-11 01:04:00,
2013-02-10 20:09:00,21.0,2.0,30.19,ESE,112,6.0,6.0,46,0.00,,,0.00,TxWx,2013-02-11 01:09:00,
2013-02-10 20:14:00,22.0,3.0,30.20,ESE,112,6.0,6.0,46,0.00,,,0.00,TxWx,2013-02-11 01:14:00,
2013-02-10 20:20:00,21.0,2.0,30.20,ESE,112,7.0,8.0,46,0.00,,,0.00,TxWx,2013-02-11 01:20:00,
2013-02-10 20:25:00,21.0,2.0,30.19,ESE,112,8.0,8.0,45,0.00,,,0.00,TxWx,2013-02-11 01:25:00,
2013-02-10 20:30:00,22.0,3.0,30.19,East,90,6.0,7.0,46,0.00,,,0.00,TxWx,2013-02-11 01:30:00,
2013-02-10 20:35:00,21.0,2.0,30.19,ESE,112,7.0,8.0,46,0.00,,,0.00,TxWx,2013-02-11 01:35:00,
2013-02-10 20:40:00,21.0,2.0,30.18,ESE,112,8.0,8.0,46,0.00,,,0.00,TxWx,2013-02-11 01:40:00,
2013-02-10 20:45:00,21.0,2.0,30.18,ESE,112,7.0,8.0,45,0.00,,,0.00,TxWx,2013-02-11 01:45:00,
2013-02-10 20:50:00,22.0,2.0,30.18,ESE,112,7.0,9.0,44,0.00,,,0.00,TxWx,2013-02-11 01:50:00,
2013-02-10 20:55:00,22.0,2.0,30.18,ESE,112,11.0,11.0,43,0.00,,,0.00,TxWx,2013-02-11 01:55:00,
2013-02-10 21:00:00,22.0,1.0,30.18,SE,135,8.0,10.0,42,0.00,,,0.00,TxWx,2013-02-11 02:00:00,
2013-02-10 21:05:00,22.0,1.0,30.19,SE,135,8.0,9.0,42,0.00,,,0.00,TxWx,2013-02-11 02:05:00,
2013-02-10 21:10:00,22.0,2.0,30.18,ESE,112,8.0,10.0,43,0.00,,,0.00,TxWx,2013-02-11 02:10:00,
2013-02-10 21:15:00,23.0,2.0,30.18,ESE,112,10.0,10.0,42,0.00,,,0.00,TxWx,2013-02-11 02:15:00,
2013-02-10 21:20:00,23.0,2.0,30.18,SE,135,8.0,11.0,42,0.00,,,0.00,TxWx,2013-02-11 02:20:00,
2013-02-10 21:25:00,23.0,2.0,30.17,ESE,112,10.0,11.0,41,0.00,,,0.00,TxWx,2013-02-11 02:25:00,
2013-02-10 21:30:00,24.0,2.0,30.17,SE,135,7.0,8.0,40,0.00,,,0.00,TxWx,2013-02-11 02:30:00,
2013-02-10 21:36:00,23.0,0.0,30.17,ESE,112,8.0,8.0,38,0.00,,,0.00,TxWx,2013-02-11 02:36:00,
2013-02-10 21:41:00,24.0,0.0,30.16,ESE,112,8.0,10.0,37,0.00,,,0.00,TxWx,2013-02-11 02:41:00,
2013-02-10 21:46:00,24.0,0.0,30.16,ESE,112,10.0,10.0,36,0.00,,,0.00,TxWx,2013-02-11 02:46:00,
2013-02-10 21:51:00,24.0,-1.0,30.16,SE,135,8.0,8.0,35,0.00,,,0.00,TxWx,2013-02-11 02:51:00,
2013-02-10 21:56:00,24.0,-1.0,30.15,SE,135,7.0,9.0,35,0.00,,,0.00,TxWx,2013-02-11 02:56:00,
2013-02-10 22:01:00,25.0,-1.0,30.15,SE,135,8.0,11.0,34,0.00,,,0.00,TxWx,2013-02-11 03:01:00,
2013-02-10 22:06:00,26.0,-1.0,30.15,SSE,157,5.0,10.0,32,0.00,,,0.00,TxWx,2013-02-11 03:06:00,
2013-02-10 22:11:00,26.0,-2.0,30.14,SE,135,6.0,9.0,30,0.00,,,0.00,TxWx,2013-02-11 03:11:00,
2013-02-10 22:16:00,26.0,-3.0,30.15,SE,135,7.0,8.0,29,0.00,,,0.00,TxWx,2013-02-11 03:16:00,
2013-02-10 22:21:00,26.0,-4.0,30.15,ESE,112,7.0,11.0,27,0.00,,,0.00,TxWx,2013-02-11 03:21:00,
2013-02-10 22:24:00,30.0,27.0,29.84,SE,135,11.0,13.0,94,0.00,,,0.00,TxWx,2013-02-11 03:24:00,
2013-02-10 22:25:00,30.0,27.0,29.84,SE,135,14.0,21.0,94,0.00,,,0.00,TxWx,2013-02-11 03:25:00,
2013-02-10 22:26:00,26.0,-4.0,30.15,ESE,112,8.0,10.0,27,0.00,,,0.00,TxWx,2013-02-11 03:26:00,
2013-02-10 22:27:00,30.0,27.0,29.84,ESE,112,25.0,29.0,94,0.00,,,0.00,TxWx,2013-02-11 03:27:00,
2013-02-10 22:28:00,30.0,27.0,29.84,SE,135,19.0,22.0,94,0.00,,,0.00,TxWx,2013-02-11 03:28:00,
2013-02-10 22:31:00,26.0,-5.0,30.15,ESE,112,7.0,7.0,27,0.00,,,0.00,TxWx,2013-02-11 03:31:00,
2013-02-10 22:36:00,26.0,-5.0,30.15,SSE,157,6.0,11.0,26,0.00,,,0.00,TxWx,2013-02-11 03:36:00,
2013-02-10 22:41:00,26.0,-6.0,30.15,SE,135,8.0,8.0,26,0.00,,,0.00,TxWx,2013-02-11 03:41:00,
2013-02-10 22:47:00,26.0,-5.0,30.15,SE,135,6.0,7.0,26,0.00,,,0.00,TxWx,2013-02-11 03:47:00,
2013-02-10 22:52:00,25.0,-6.0,30.15,SE,135,5.0,6.0,27,0.00,,,0.00,TxWx,2013-02-11 03:52:00,
2013-02-10 22:57:00,25.0,-5.0,30.14,SE,135,9.0,11.0,28,0.00,,,0.00,TxWx,2013-02-11 03:57:00,
2013-02-10 23:02:00,26.0,-4.0,30.14,ESE,112,10.0,11.0,28,0.00,,,0.00,TxWx,2013-02-11 04:02:00,
2013-02-10 23:07:00,26.0,-4.0,30.14,SE,135,8.0,9.0,28,0.00,,,0.00,TxWx,2013-02-11 04:07:00,
2013-02-10 23:12:00,26.0,-4.0,30.13,SSE,157,10.0,13.0,28,0.00,,,0.00,TxWx,2013-02-11 04:12:00,
2013-02-10 23:17:00,26.0,-4.0,30.13,SE,135,6.0,7.0,28,0.00,,,0.00,TxWx,2013-02-11 04:17:00,
2013-02-10 23:22:00,26.0,-4.0,30.12,ESE,112,13.0,13.0,28,0.00,,,0.00,TxWx,2013-02-11 04:22:00,
2013-02-10 23:27:00,26.0,-3.0,30.12,East,90,10.0,11.0,29,0.00,,,0.00,TxWx,2013-02-11 04:27:00,
2013-02-10 23:32:00,26.0,-4.0,30.11,ESE,112,12.0,14.0,28,0.00,,,0.00,TxWx,2013-02-11 04:32:00,
2013-02-10 23:37:00,27.0,-2.0,30.11,East,90,8.0,13.0,29,0.00,,,0.00,TxWx,2013-02-11 04:37:00,
2013-02-10 23:42:00,27.0,-2.0,30.11,ESE,112,11.0,13.0,29,0.00,,,0.00,TxWx,2013-02-11 04:42:00,
2013-02-10 23:48:00,27.0,-2.0,30.11,SSE,157,8.0,9.0,29,0.00,,,0.00,TxWx,2013-02-11 04:48:00,
2013-02-10 23:53:00,27.0,-2.0,30.11,ESE,112,13.0,16.0,29,0.00,,,0.00,TxWx,2013-02-11 04:53:00,
2013-02-10 23:58:00,27.0,-2.0,30.11,ESE,112,9.0,10.0,29,0.00,,,0.00,TxWx,2013-02-11 04:58:00,